sensor_id;sensor_type;location;lat;lon;timestamp;pressure;altitude;pressure_sealevel;temperature;humidity
37892;BME280;45797;47.466;9.486;2023-08-12T00:04:18;96159.16;;;23.05;54.76
37892;BME280;45797;47.466;9.486;2023-08-12T00:09:29;96152.66;;;22.99;54.52
37892;BME280;45797;47.466;9.486;2023-08-12T00:14:39;96160.22;;;22.96;55.21
37892;BME280;45797;47.466;9.486;2023-08-12T00:19:39;96158.91;;;22.92;55.13
37892;BME280;45797;47.466;9.486;2023-08-12T00:24:41;96145.53;;;22.92;55.12
37892;BME280;45797;47.466;9.486;2023-08-12T00:29:42;96133.91;;;22.85;55.76
37892;BME280;45797;47.466;9.486;2023-08-12T00:34:42;96134.41;;;22.80;55.40
37892;BME280;45797;47.466;9.486;2023-08-12T00:39:44;96134.13;;;22.75;55.82
37892;BME280;45797;47.466;9.486;2023-08-12T00:44:44;96143.84;;;22.68;56.60
37892;BME280;45797;47.466;9.486;2023-08-12T00:49:51;96136.34;;;22.63;56.32
37892;BME280;45797;47.466;9.486;2023-08-12T00:54:54;96128.38;;;22.55;56.67
37892;BME280;45797;47.466;9.486;2023-08-12T01:00:08;96127.63;;;22.46;56.18
37892;BME280;45797;47.466;9.486;2023-08-12T01:05:18;96133.47;;;22.42;56.66
37892;BME280;45797;47.466;9.486;2023-08-12T01:10:23;96136.50;;;22.39;57.12
37892;BME280;45797;47.466;9.486;2023-08-12T01:15:30;96135.34;;;22.33;57.26
37892;BME280;45797;47.466;9.486;2023-08-12T01:20:38;96125.41;;;22.27;57.34
37892;BME280;45797;47.466;9.486;2023-08-12T01:25:42;96123.88;;;22.24;57.79
37892;BME280;45797;47.466;9.486;2023-08-12T01:31:05;96125.94;;;22.14;57.66
37892;BME280;45797;47.466;9.486;2023-08-12T01:36:12;96120.59;;;22.14;58.33
37892;BME280;45797;47.466;9.486;2023-08-12T01:41:16;96124.00;;;22.08;58.60
37892;BME280;45797;47.466;9.486;2023-08-12T01:46:30;96126.31;;;22.03;58.64
37892;BME280;45797;47.466;9.486;2023-08-12T01:51:31;96133.81;;;22.00;58.75
37892;BME280;45797;47.466;9.486;2023-08-12T01:56:31;96129.00;;;21.95;58.94
37892;BME280;45797;47.466;9.486;2023-08-12T02:01:33;96123.47;;;21.96;58.79
37892;BME280;45797;47.466;9.486;2023-08-12T02:06:34;96119.16;;;21.95;59.39
37892;BME280;45797;47.466;9.486;2023-08-12T02:11:34;96113.63;;;21.97;59.36
37892;BME280;45797;47.466;9.486;2023-08-12T02:16:36;96104.63;;;21.98;59.29
37892;BME280;45797;47.466;9.486;2023-08-12T02:21:46;96110.31;;;21.95;59.18
37892;BME280;45797;47.466;9.486;2023-08-12T02:26:56;96114.34;;;21.91;59.59
37892;BME280;45797;47.466;9.486;2023-08-12T02:32:03;96105.69;;;21.89;59.33
37892;BME280;45797;47.466;9.486;2023-08-12T02:37:10;96105.69;;;21.89;59.35
37892;BME280;45797;47.466;9.486;2023-08-12T02:42:14;96109.00;;;21.91;59.87
37892;BME280;45797;47.466;9.486;2023-08-12T02:47:31;96107.34;;;21.90;59.60
37892;BME280;45797;47.466;9.486;2023-08-12T02:52:31;96103.31;;;21.94;59.61
37892;BME280;45797;47.466;9.486;2023-08-12T02:57:34;96099.97;;;22.00;59.65
37892;BME280;45797;47.466;9.486;2023-08-12T03:02:34;96093.63;;;22.01;60.09
37892;BME280;45797;47.466;9.486;2023-08-12T03:07:39;96089.28;;;22.08;59.55
37892;BME280;45797;47.466;9.486;2023-08-12T03:12:40;96096.28;;;22.09;59.76
37892;BME280;45797;47.466;9.486;2023-08-12T03:17:48;96104.44;;;22.08;59.67
37892;BME280;45797;47.466;9.486;2023-08-12T03:22:54;96110.78;;;22.07;59.82
37892;BME280;45797;47.466;9.486;2023-08-12T03:27:56;96104.78;;;22.05;59.85
37892;BME280;45797;47.466;9.486;2023-08-12T03:32:56;96108.44;;;22.04;60.07
37892;BME280;45797;47.466;9.486;2023-08-12T03:38:15;96114.97;;;22.01;60.02
37892;BME280;45797;47.466;9.486;2023-08-12T03:43:18;96103.94;;;22.04;60.18
37892;BME280;45797;47.466;9.486;2023-08-12T03:48:20;96105.97;;;22.02;60.32
37892;BME280;45797;47.466;9.486;2023-08-12T03:53:21;96107.97;;;22.00;60.53
37892;BME280;45797;47.466;9.486;2023-08-12T03:58:30;96101.31;;;21.96;60.70
37892;BME280;45797;47.466;9.486;2023-08-12T04:03:38;96111.50;;;21.92;60.88
37892;BME280;45797;47.466;9.486;2023-08-12T04:08:39;96108.38;;;21.89;61.10
37892;BME280;45797;47.466;9.486;2023-08-12T04:13:45;96112.69;;;21.90;60.97
37892;BME280;45797;47.466;9.486;2023-08-12T04:18:46;96097.84;;;21.87;61.26
37892;BME280;45797;47.466;9.486;2023-08-12T04:24:04;96104.00;;;21.88;61.09
37892;BME280;45797;47.466;9.486;2023-08-12T04:29:07;96101.66;;;21.93;61.58
37892;BME280;45797;47.466;9.486;2023-08-12T04:34:14;96097.81;;;21.95;61.37
37892;BME280;45797;47.466;9.486;2023-08-12T04:39:14;96094.97;;;21.97;61.31
37892;BME280;45797;47.466;9.486;2023-08-12T04:44:20;96095.94;;;22.04;61.52
37892;BME280;45797;47.466;9.486;2023-08-12T04:49:22;96097.44;;;22.07;60.98
37892;BME280;45797;47.466;9.486;2023-08-12T04:54:24;96099.59;;;22.11;61.71
37892;BME280;45797;47.466;9.486;2023-08-12T04:59:25;96097.09;;;22.18;61.60
37892;BME280;45797;47.466;9.486;2023-08-12T05:04:26;96092.19;;;22.30;61.20
37892;BME280;45797;47.466;9.486;2023-08-12T05:09:43;96100.97;;;22.38;61.05
37892;BME280;45797;47.466;9.486;2023-08-12T05:14:46;96099.72;;;22.49;60.91
37892;BME280;45797;47.466;9.486;2023-08-12T05:19:49;96084.59;;;22.64;60.91
37892;BME280;45797;47.466;9.486;2023-08-12T05:24:49;96081.16;;;22.78;61.01
37892;BME280;45797;47.466;9.486;2023-08-12T05:30:00;96078.03;;;22.98;60.33
37892;BME280;45797;47.466;9.486;2023-08-12T05:35:01;96083.94;;;23.08;60.01
37892;BME280;45797;47.466;9.486;2023-08-12T05:40:01;96084.25;;;23.13;60.25
37892;BME280;45797;47.466;9.486;2023-08-12T05:45:05;96083.88;;;23.16;60.48
37892;BME280;45797;47.466;9.486;2023-08-12T05:50:06;96083.44;;;23.27;60.45
37892;BME280;45797;47.466;9.486;2023-08-12T05:55:08;96091.56;;;23.49;59.85
37892;BME280;45797;47.466;9.486;2023-08-12T06:00:12;96090.16;;;23.61;59.74
37892;BME280;45797;47.466;9.486;2023-08-12T06:05:13;96095.28;;;23.77;59.72
37892;BME280;45797;47.466;9.486;2023-08-12T06:10:26;96104.78;;;23.94;59.43
37892;BME280;45797;47.466;9.486;2023-08-12T06:15:28;96099.63;;;24.08;59.39
37892;BME280;45797;47.466;9.486;2023-08-12T06:20:35;96101.19;;;24.17;58.94
37892;BME280;45797;47.466;9.486;2023-08-12T06:25:36;96098.84;;;24.29;59.32
37892;BME280;45797;47.466;9.486;2023-08-12T06:30:40;96093.22;;;24.38;59.08
37892;BME280;45797;47.466;9.486;2023-08-12T06:35:50;96091.16;;;24.55;58.77
37892;BME280;45797;47.466;9.486;2023-08-12T06:40:51;96103.84;;;24.68;58.60
37892;BME280;45797;47.466;9.486;2023-08-12T06:45:57;96093.63;;;24.78;58.57
37892;BME280;45797;47.466;9.486;2023-08-12T06:51:03;96091.56;;;24.80;58.68
37892;BME280;45797;47.466;9.486;2023-08-12T06:56:16;96087.75;;;24.89;58.62
37892;BME280;45797;47.466;9.486;2023-08-12T07:01:17;96087.91;;;25.02;58.68
37892;BME280;45797;47.466;9.486;2023-08-12T07:06:25;96095.81;;;25.11;58.42
37892;BME280;45797;47.466;9.486;2023-08-12T07:11:28;96102.69;;;25.20;58.46
37892;BME280;45797;47.466;9.486;2023-08-12T07:16:28;96104.03;;;25.30;57.99
37892;BME280;45797;47.466;9.486;2023-08-12T07:21:29;96107.44;;;25.46;57.93
37892;BME280;45797;47.466;9.486;2023-08-12T07:26:59;96103.53;;;25.48;58.13
37892;BME280;45797;47.466;9.486;2023-08-12T07:32:04;96108.38;;;25.59;57.76
37892;BME280;45797;47.466;9.486;2023-08-12T07:42:33;96126.25;;;25.24;58.68
37892;BME280;45797;47.466;9.486;2023-08-12T07:47:39;96118.53;;;25.15;58.92
37892;BME280;45797;47.466;9.486;2023-08-12T07:52:41;96118.09;;;25.11;59.23
37892;BME280;45797;47.466;9.486;2023-08-12T07:57:45;96130.53;;;24.97;59.43
37892;BME280;45797;47.466;9.486;2023-08-12T08:03:03;96139.81;;;25.01;59.43
37892;BME280;45797;47.466;9.486;2023-08-12T08:08:05;96129.34;;;25.21;58.76
37892;BME280;45797;47.466;9.486;2023-08-12T08:13:06;96124.63;;;25.51;58.76
37892;BME280;45797;47.466;9.486;2023-08-12T08:18:18;96133.75;;;25.85;57.89
37892;BME280;45797;47.466;9.486;2023-08-12T08:23:27;96129.75;;;26.09;57.29
37892;BME280;45797;47.466;9.486;2023-08-12T08:28:27;96131.47;;;26.16;57.31
37892;BME280;45797;47.466;9.486;2023-08-12T08:33:28;96145.50;;;26.18;57.67
37892;BME280;45797;47.466;9.486;2023-08-12T08:38:28;96149.03;;;26.19;57.82
37892;BME280;45797;47.466;9.486;2023-08-12T08:43:29;96141.91;;;26.05;57.87
37892;BME280;45797;47.466;9.486;2023-08-12T08:48:32;96141.22;;;26.31;57.75
37892;BME280;45797;47.466;9.486;2023-08-12T08:53:37;96129.59;;;26.71;57.11
37892;BME280;45797;47.466;9.486;2023-08-12T08:58:40;96144.38;;;27.02;56.35
37892;BME280;45797;47.466;9.486;2023-08-12T09:03:43;96137.16;;;27.29;55.77
37892;BME280;45797;47.466;9.486;2023-08-12T09:08:47;96141.13;;;27.40;55.71
37892;BME280;45797;47.466;9.486;2023-08-12T09:13:59;96150.66;;;27.49;55.78
37892;BME280;45797;47.466;9.486;2023-08-12T09:19:03;96148.56;;;27.64;55.08
37892;BME280;45797;47.466;9.486;2023-08-12T09:24:04;96156.47;;;27.79;55.15
37892;BME280;45797;47.466;9.486;2023-08-12T09:29:34;96151.88;;;27.93;54.82
37892;BME280;45797;47.466;9.486;2023-08-12T09:34:51;96162.81;;;28.04;54.82
37892;BME280;45797;47.466;9.486;2023-08-12T09:40:03;96157.88;;;28.08;54.83
37892;BME280;45797;47.466;9.486;2023-08-12T09:45:06;96166.31;;;28.31;54.67
37892;BME280;45797;47.466;9.486;2023-08-12T09:50:07;96165.84;;;28.48;54.65
37892;BME280;45797;47.466;9.486;2023-08-12T09:55:40;96149.03;;;28.52;54.36
37892;BME280;45797;47.466;9.486;2023-08-12T10:00:43;96144.25;;;28.54;54.68
37892;BME280;45797;47.466;9.486;2023-08-12T10:05:54;96143.47;;;28.85;53.63
37892;BME280;45797;47.466;9.486;2023-08-12T10:10:57;96151.19;;;28.82;53.99
37892;BME280;45797;47.466;9.486;2023-08-12T10:15:59;96164.63;;;28.88;53.75
37892;BME280;45797;47.466;9.486;2023-08-12T10:21:01;96165.44;;;29.27;52.55
37892;BME280;45797;47.466;9.486;2023-08-12T10:26:01;96170.91;;;29.77;50.82
37892;BME280;45797;47.466;9.486;2023-08-12T10:31:18;96169.06;;;30.21;50.08
37892;BME280;45797;47.466;9.486;2023-08-12T10:36:22;96163.56;;;30.82;48.51
37892;BME280;45797;47.466;9.486;2023-08-12T10:41:29;96154.31;;;31.20;48.39
37892;BME280;45797;47.466;9.486;2023-08-12T10:46:34;96145.34;;;31.73;46.77
37892;BME280;45797;47.466;9.486;2023-08-12T10:51:44;96150.09;;;32.24;46.02
37892;BME280;45797;47.466;9.486;2023-08-12T10:57:07;96150.25;;;32.70;45.47
37892;BME280;45797;47.466;9.486;2023-08-12T11:02:19;96169.59;;;32.73;45.57
37892;BME280;45797;47.466;9.486;2023-08-12T11:07:39;96170.81;;;32.54;45.63
37892;BME280;45797;47.466;9.486;2023-08-12T11:12:58;96179.94;;;32.36;45.87
37892;BME280;45797;47.466;9.486;2023-08-12T11:18:13;96193.47;;;32.01;45.89
37892;BME280;45797;47.466;9.486;2023-08-12T11:23:16;96216.81;;;31.78;45.80
37892;BME280;45797;47.466;9.486;2023-08-12T11:28:18;96205.06;;;30.94;46.94
37892;BME280;45797;47.466;9.486;2023-08-12T11:33:36;96194.16;;;30.46;47.89
37892;BME280;45797;47.466;9.486;2023-08-12T11:38:38;96184.84;;;30.42;47.04
37892;BME280;45797;47.466;9.486;2023-08-12T11:43:38;96167.34;;;30.63;46.76
37892;BME280;45797;47.466;9.486;2023-08-12T11:48:38;96160.84;;;31.01;45.38
37892;BME280;45797;47.466;9.486;2023-08-12T11:53:39;96157.66;;;31.45;45.00
37892;BME280;45797;47.466;9.486;2023-08-12T11:58:49;96139.25;;;31.89;44.23
37892;BME280;45797;47.466;9.486;2023-08-12T12:04:00;96144.53;;;32.19;43.12
37892;BME280;45797;47.466;9.486;2023-08-12T12:09:12;96138.19;;;32.14;43.47
37892;BME280;45797;47.466;9.486;2023-08-12T12:14:17;96141.13;;;32.24;43.19
37892;BME280;45797;47.466;9.486;2023-08-12T12:19:22;96130.84;;;32.26;43.84
37892;BME280;45797;47.466;9.486;2023-08-12T12:24:30;96127.56;;;32.24;44.17
37892;BME280;45797;47.466;9.486;2023-08-12T12:29:30;96129.84;;;32.03;45.06
37892;BME280;45797;47.466;9.486;2023-08-12T12:34:31;96123.72;;;31.85;45.07
37892;BME280;45797;47.466;9.486;2023-08-12T12:39:33;96117.69;;;31.82;45.45
37892;BME280;45797;47.466;9.486;2023-08-12T12:44:34;96125.22;;;31.80;45.50
37892;BME280;45797;47.466;9.486;2023-08-12T12:49:36;96139.50;;;31.88;45.60
37892;BME280;45797;47.466;9.486;2023-08-12T12:54:39;96143.25;;;31.98;45.14
37892;BME280;45797;47.466;9.486;2023-08-12T12:59:48;96145.94;;;32.22;44.71
37892;BME280;45797;47.466;9.486;2023-08-12T13:04:48;96142.66;;;32.43;44.40
37892;BME280;45797;47.466;9.486;2023-08-12T13:09:49;96133.31;;;32.51;44.85
37892;BME280;45797;47.466;9.486;2023-08-12T13:14:52;96126.72;;;32.75;44.27
37892;BME280;45797;47.466;9.486;2023-08-12T13:19:52;96115.03;;;32.86;44.46
37892;BME280;45797;47.466;9.486;2023-08-12T13:24:57;96118.06;;;32.61;44.54
37892;BME280;45797;47.466;9.486;2023-08-12T13:30:23;96105.19;;;32.57;44.71
37892;BME280;45797;47.466;9.486;2023-08-12T13:35:25;96109.13;;;33.06;43.69
37892;BME280;45797;47.466;9.486;2023-08-12T13:40:36;96107.84;;;33.09;43.92
37892;BME280;45797;47.466;9.486;2023-08-12T13:45:37;96096.34;;;33.18;43.94
37892;BME280;45797;47.466;9.486;2023-08-12T13:50:37;96081.53;;;33.43;43.74
37892;BME280;45797;47.466;9.486;2023-08-12T13:55:55;96091.47;;;33.71;43.23
37892;BME280;45797;47.466;9.486;2023-08-12T14:00:57;96088.75;;;34.04;42.46
37892;BME280;45797;47.466;9.486;2023-08-12T14:06:01;96074.59;;;34.46;42.34
37892;BME280;45797;47.466;9.486;2023-08-12T14:11:03;96069.50;;;34.77;41.93
37892;BME280;45797;47.466;9.486;2023-08-12T14:16:03;96066.03;;;35.08;41.11
37892;BME280;45797;47.466;9.486;2023-08-12T14:21:05;96067.38;;;35.38;40.99
37892;BME280;45797;47.466;9.486;2023-08-12T14:26:23;96072.81;;;35.38;40.94
37892;BME280;45797;47.466;9.486;2023-08-12T14:31:23;96065.78;;;35.42;41.64
37892;BME280;45797;47.466;9.486;2023-08-12T14:36:24;96064.75;;;35.48;40.95
37892;BME280;45797;47.466;9.486;2023-08-12T14:41:25;96051.88;;;35.43;41.04
37892;BME280;45797;47.466;9.486;2023-08-12T14:46:25;96043.97;;;35.42;40.86
37892;BME280;45797;47.466;9.486;2023-08-12T14:51:27;96042.59;;;35.07;41.32
37892;BME280;45797;47.466;9.486;2023-08-12T15:02:09;96033.38;;;35.13;40.79
37892;BME280;45797;47.466;9.486;2023-08-12T15:07:12;96018.72;;;35.19;40.21
37892;BME280;45797;47.466;9.486;2023-08-12T15:12:12;96008.00;;;35.13;40.87
37892;BME280;45797;47.466;9.486;2023-08-12T15:17:14;96004.84;;;34.94;40.95
37892;BME280;45797;47.466;9.486;2023-08-12T15:22:15;95991.50;;;34.92;41.16
37892;BME280;45797;47.466;9.486;2023-08-12T15:27:24;95979.53;;;35.26;40.20
37892;BME280;45797;47.466;9.486;2023-08-12T15:32:27;95987.75;;;35.36;40.14
37892;BME280;45797;47.466;9.486;2023-08-12T15:37:41;95983.66;;;35.81;39.57
37892;BME280;45797;47.466;9.486;2023-08-12T15:42:42;95985.41;;;35.97;39.13
37892;BME280;45797;47.466;9.486;2023-08-12T15:47:43;95985.00;;;36.30;38.41
37892;BME280;45797;47.466;9.486;2023-08-12T15:52:44;95995.25;;;36.81;37.68
37892;BME280;45797;47.466;9.486;2023-08-12T15:57:46;95994.41;;;37.82;36.52
37892;BME280;45797;47.466;9.486;2023-08-12T16:02:48;96001.13;;;39.48;34.01
37892;BME280;45797;47.466;9.486;2023-08-12T16:08:08;96022.97;;;40.35;32.73
37892;BME280;45797;47.466;9.486;2023-08-12T16:13:20;96026.88;;;40.96;31.97
37892;BME280;45797;47.466;9.486;2023-08-12T16:18:27;96037.28;;;40.99;31.55
37892;BME280;45797;47.466;9.486;2023-08-12T16:23:37;96036.88;;;39.38;33.81
37892;BME280;45797;47.466;9.486;2023-08-12T16:28:52;96040.09;;;38.67;34.63
37892;BME280;45797;47.466;9.486;2023-08-12T16:33:53;96048.53;;;38.06;35.35
37892;BME280;45797;47.466;9.486;2023-08-12T16:39:06;96054.09;;;37.44;36.48
37892;BME280;45797;47.466;9.486;2023-08-12T16:44:08;96051.63;;;37.38;36.09
37892;BME280;45797;47.466;9.486;2023-08-12T16:49:09;96057.38;;;37.57;35.64
37892;BME280;45797;47.466;9.486;2023-08-12T16:54:10;96076.22;;;37.33;35.83
37892;BME280;45797;47.466;9.486;2023-08-12T16:59:11;96081.31;;;38.36;34.46
37892;BME280;45797;47.466;9.486;2023-08-12T17:04:12;96082.31;;;38.61;34.04
37892;BME280;45797;47.466;9.486;2023-08-12T17:09:22;96099.97;;;37.02;36.60
37892;BME280;45797;47.466;9.486;2023-08-12T17:14:22;96087.72;;;35.57;38.52
37892;BME280;45797;47.466;9.486;2023-08-12T17:19:24;96088.41;;;34.61;39.94
37892;BME280;45797;47.466;9.486;2023-08-12T17:24:29;96092.63;;;33.92;40.73
37892;BME280;45797;47.466;9.486;2023-08-12T17:29:37;96092.97;;;33.28;41.55
37892;BME280;45797;47.466;9.486;2023-08-12T17:34:38;96099.06;;;32.50;42.67
37892;BME280;45797;47.466;9.486;2023-08-12T17:39:39;96093.06;;;31.96;43.86
37892;BME280;45797;47.466;9.486;2023-08-12T17:44:43;96098.59;;;31.77;43.82
37892;BME280;45797;47.466;9.486;2023-08-12T17:50:11;96086.53;;;31.50;44.48
37892;BME280;45797;47.466;9.486;2023-08-12T17:55:14;96085.34;;;31.34;44.47
37892;BME280;45797;47.466;9.486;2023-08-12T18:00:22;96097.63;;;31.07;45.33
37892;BME280;45797;47.466;9.486;2023-08-12T18:05:27;96086.28;;;30.98;45.56
37892;BME280;45797;47.466;9.486;2023-08-12T18:10:27;96084.56;;;31.04;45.52
37892;BME280;45797;47.466;9.486;2023-08-12T18:15:43;96084.06;;;30.95;45.73
37892;BME280;45797;47.466;9.486;2023-08-12T18:20:49;96078.72;;;30.88;45.65
37892;BME280;45797;47.466;9.486;2023-08-12T18:26:15;96080.22;;;30.73;46.41
37892;BME280;45797;47.466;9.486;2023-08-12T18:31:35;96075.72;;;30.48;46.63
37892;BME280;45797;47.466;9.486;2023-08-12T18:36:40;96092.44;;;30.27;47.20
37892;BME280;45797;47.466;9.486;2023-08-12T18:41:40;96101.66;;;30.01;47.96
37892;BME280;45797;47.466;9.486;2023-08-12T18:46:41;96084.22;;;29.78;48.08
37892;BME280;45797;47.466;9.486;2023-08-12T18:51:41;96079.31;;;29.50;48.58
37892;BME280;45797;47.466;9.486;2023-08-12T18:56:43;96089.84;;;29.27;48.88
37892;BME280;45797;47.466;9.486;2023-08-12T19:01:45;96097.72;;;29.04;49.32
37892;BME280;45797;47.466;9.486;2023-08-12T19:06:49;96104.66;;;28.86;49.84
37892;BME280;45797;47.466;9.486;2023-08-12T19:17:26;96119.19;;;28.47;50.20
37892;BME280;45797;47.466;9.486;2023-08-12T19:22:28;96133.94;;;28.38;50.74
37892;BME280;45797;47.466;9.486;2023-08-12T19:27:47;96138.94;;;28.21;50.57
37892;BME280;45797;47.466;9.486;2023-08-12T19:32:58;96139.00;;;28.08;51.18
37892;BME280;45797;47.466;9.486;2023-08-12T19:38:00;96142.13;;;27.98;51.22
37892;BME280;45797;47.466;9.486;2023-08-12T19:43:02;96140.28;;;27.85;51.65
37892;BME280;45797;47.466;9.486;2023-08-12T19:48:02;96149.81;;;27.75;52.00
37892;BME280;45797;47.466;9.486;2023-08-12T19:53:04;96161.84;;;27.66;52.05
37892;BME280;45797;47.466;9.486;2023-08-12T19:58:05;96168.44;;;27.56;52.40
37892;BME280;45797;47.466;9.486;2023-08-12T20:03:08;96166.16;;;27.47;52.75
37892;BME280;45797;47.466;9.486;2023-08-12T20:08:08;96164.31;;;27.34;52.84
37892;BME280;45797;47.466;9.486;2023-08-12T20:13:12;96163.25;;;27.28;53.02
37892;BME280;45797;47.466;9.486;2023-08-12T20:18:19;96169.88;;;27.19;53.04
37892;BME280;45797;47.466;9.486;2023-08-12T20:23:20;96168.44;;;27.10;53.41
37892;BME280;45797;47.466;9.486;2023-08-12T20:28:21;96169.63;;;27.01;53.71
37892;BME280;45797;47.466;9.486;2023-08-12T20:33:23;96172.09;;;26.96;53.76
37892;BME280;45797;47.466;9.486;2023-08-12T20:38:24;96164.00;;;26.89;53.95
37892;BME280;45797;47.466;9.486;2023-08-12T20:43:25;96164.00;;;26.83;53.99
37892;BME280;45797;47.466;9.486;2023-08-12T20:48:27;96180.94;;;26.76;54.32
37892;BME280;45797;47.466;9.486;2023-08-12T20:53:53;96181.31;;;26.67;54.52
37892;BME280;45797;47.466;9.486;2023-08-12T20:58:53;96190.16;;;26.61;54.76
37892;BME280;45797;47.466;9.486;2023-08-12T21:03:55;96182.09;;;26.54;55.40
37892;BME280;45797;47.466;9.486;2023-08-12T21:08:56;96181.44;;;26.45;54.87
37892;BME280;45797;47.466;9.486;2023-08-12T21:13:56;96179.31;;;26.41;55.40
37892;BME280;45797;47.466;9.486;2023-08-12T21:18:57;96180.34;;;26.40;55.29
37892;BME280;45797;47.466;9.486;2023-08-12T21:23:59;96186.97;;;26.37;55.63
37892;BME280;45797;47.466;9.486;2023-08-12T21:28:59;96186.69;;;26.32;55.44
37892;BME280;45797;47.466;9.486;2023-08-12T21:34:00;96178.00;;;26.30;55.86
37892;BME280;45797;47.466;9.486;2023-08-12T21:39:13;96172.41;;;26.25;55.69
37892;BME280;45797;47.466;9.486;2023-08-12T21:44:15;96178.78;;;26.24;56.17
37892;BME280;45797;47.466;9.486;2023-08-12T21:49:19;96171.34;;;26.19;55.40
37892;BME280;45797;47.466;9.486;2023-08-12T21:54:19;96164.28;;;26.12;56.47
37892;BME280;45797;47.466;9.486;2023-08-12T21:59:21;96172.72;;;26.09;56.22
37892;BME280;45797;47.466;9.486;2023-08-12T22:04:22;96157.19;;;26.04;56.24
37892;BME280;45797;47.466;9.486;2023-08-12T22:09:24;96165.44;;;26.03;56.16
37892;BME280;45797;47.466;9.486;2023-08-12T22:14:26;96163.81;;;26.02;56.61
37892;BME280;45797;47.466;9.486;2023-08-12T22:19:31;96168.97;;;26.03;56.45
37892;BME280;45797;47.466;9.486;2023-08-12T22:24:32;96170.00;;;26.02;56.29
37892;BME280;45797;47.466;9.486;2023-08-12T22:29:36;96171.44;;;25.98;56.59
37892;BME280;45797;47.466;9.486;2023-08-12T22:34:37;96162.53;;;25.98;56.69
37892;BME280;45797;47.466;9.486;2023-08-12T22:39:37;96172.00;;;25.94;56.53
37892;BME280;45797;47.466;9.486;2023-08-12T22:44:46;96171.97;;;25.87;57.23
37892;BME280;45797;47.466;9.486;2023-08-12T22:49:53;96168.78;;;25.77;57.51
37892;BME280;45797;47.466;9.486;2023-08-12T22:54:59;96168.09;;;25.68;58.00
37892;BME280;45797;47.466;9.486;2023-08-12T23:00:08;96155.66;;;25.60;58.42
37892;BME280;45797;47.466;9.486;2023-08-12T23:05:10;96150.91;;;25.62;58.59
37892;BME280;45797;47.466;9.486;2023-08-12T23:10:10;96149.88;;;25.63;58.64
37892;BME280;45797;47.466;9.486;2023-08-12T23:15:21;96141.84;;;25.63;58.49
37892;BME280;45797;47.466;9.486;2023-08-12T23:20:37;96141.22;;;25.61;58.66
37892;BME280;45797;47.466;9.486;2023-08-12T23:25:37;96140.56;;;25.59;59.03
37892;BME280;45797;47.466;9.486;2023-08-12T23:30:50;96138.91;;;25.58;58.92
37892;BME280;45797;47.466;9.486;2023-08-12T23:35:51;96147.97;;;25.57;59.12
37892;BME280;45797;47.466;9.486;2023-08-12T23:41:04;96145.69;;;25.54;58.83
37892;BME280;45797;47.466;9.486;2023-08-12T23:46:14;96138.66;;;25.53;58.99
37892;BME280;45797;47.466;9.486;2023-08-12T23:51:27;96123.34;;;25.47;59.39
37892;BME280;45797;47.466;9.486;2023-08-12T23:56:28;96126.41;;;25.44;59.45
